Evanston Uinta County Burns Field
KEVW : now visible

Airfield :











YOU CAN JOIN US ON...

 
LOGIN :

Register | Disclaimer

   EN    FR    IT 

 









Legend :    VFR   Marginal VFR   IFR   Intensive IFR   Very Intensive IFR
Visi :
Ceiling :
>= 8 km
>= 3000ft
5 to 8 km
1000 to 3000 ft
1500m to 5 km
500 to 1000 ft
800 to 1500m
200 to 500 ft
< 800m
< 200 ft
Symbols :   Thunderstorms  Fog  Heavy snow  Heavy precipitations  Wind > 20 kt







- Airport Elevation : 7143 ft


KEVW - Evanston Uinta County Burns Field

CURRENT METAR :
  • 260153Z AUTO 27012KT 10SM CLR 22/00 A3015 RMK AO2 SLP114 T02220000

EXPIRED METARs :
  • 260053Z AUTO 27021G29KT 10SM CLR 24/M01 A3016 RMK AO2 PK WND 27037/0006 SLP116 T02441006
  • 252353Z AUTO 26025G31KT 10SM CLR 26/M01 A3017 RMK AO2 PK WND 28033/2329 SLP118 T02561011 10272 20250 58005

TAF KEVW
Valid from the 26 at 00:00 until the 27 at 00:00 UTC


252320Z 2600/2624 27024G34KT P6SM SKC
FM260200 29010KT P6SM SKC
FM260400 24007KT P6SM SKC
FM261800 27015G22KT P6SM SKC
No reported NOTAMs for that airfield.



MET'MAP, your aeronautical weather chart ! - Copyright ORBIFLY December 2007 - Disclaimer

ORBIFLY MET'MAP TEAM :

Programming & Development : Alexandra Zaïnal
Concept & Development : Baudouin d'Aumeries
Co-Development & Prog : Marc-Olivier Méhu
Technical & hardware support : Manuel Goepfert

Contact : metmap@orbifly.com




SOURCES & CREDITS :

   NOAA       Earth
Advisory